Pangborn Memorial Airport
KEAT : now visible

Airfield :











YOU CAN JOIN US ON...

 
LOGIN :

Register | Disclaimer

   EN    FR    IT 

 









Legend :    VFR   Marginal VFR   IFR   Intensive IFR   Very Intensive IFR
Visi :
Ceiling :
>= 8 km
>= 3000ft
5 to 8 km
1000 to 3000 ft
1500m to 5 km
500 to 1000 ft
800 to 1500m
200 to 500 ft
< 800m
< 200 ft
Symbols :   Thunderstorms  Fog  Heavy snow  Heavy precipitations  Wind > 20 kt






- Airport Elevation : 1249 ft


KEAT - Pangborn Memorial

CURRENT METAR :
  • 211455Z AUTO 28010KT 10SM 13/03 A3000 RMK AO2 RAB33E50 SLP156 P0000 60000 T01280033 TSNO $

EXPIRED METARs :
  • 211255Z AUTO 30010KT 10SM CLR 12/02 A3001 RMK AO2 SLP159 T01170017 $
  • 211213Z 28009KT 10SM CLR 11/02 A3002

TAF KEAT
Valid from the 21 at 12:00 until the 22 at 12:00 UTC


211128Z 2112/2212 29010KT P6SM SKC
FM211400 31009KT P6SM BKN110
FM211700 28009KT P6SM BKN080
FM212000 26009KT P6SM OVC060
PROB30 2122/2204 6SM -SHRA BR
FM220400 29008KT P6SM OVC060
FM220600 30006KT P6SM FEW060
KZSE FIR / North America



MET'MAP, your aeronautical weather chart ! - Copyright ORBIFLY December 2007 - Disclaimer

ORBIFLY MET'MAP TEAM :

Programming & Development : Alexandra Zaïnal
Original concept : Baudouin d'Aumeries
Technical & hardware support : Manuel Goepfert
Assistance : Marc-Olivier Méhu




SOURCES & CREDITS :

   NOAA       Earth
Advisory